createdAt,value
2022-11-16T00:04:21.719Z,96.27
2022-11-16T00:09:21.695Z,95.96
2022-11-16T00:14:21.600Z,95.86
2022-11-16T00:19:21.589Z,95.65
2022-11-16T00:24:21.492Z,95.80
2022-11-16T00:29:21.476Z,95.80
2022-11-16T00:34:21.372Z,95.65
2022-11-16T00:39:29.277Z,95.70
2022-11-16T00:44:21.196Z,95.80
2022-11-16T00:49:21.156Z,95.80
2022-11-16T00:54:21.105Z,95.80
2022-11-16T00:59:21.024Z,95.59
2022-11-16T01:04:20.969Z,95.49
2022-11-16T01:09:20.899Z,95.49
2022-11-16T01:14:20.874Z,95.59
2022-11-16T01:19:20.806Z,95.34
2022-11-16T01:24:20.728Z,95.45
2022-11-16T01:29:20.653Z,95.55
2022-11-16T01:34:20.606Z,95.45
2022-11-16T01:39:20.529Z,95.24
2022-11-16T01:44:20.521Z,95.34
2022-11-16T01:49:20.419Z,95.45
2022-11-16T01:54:20.303Z,95.65
2022-11-16T01:59:20.223Z,95.65
2022-11-16T02:04:20.185Z,95.65
2022-11-16T02:09:20.110Z,95.86
2022-11-16T02:14:20.136Z,95.86
2022-11-16T02:19:20.004Z,95.61
2022-11-16T02:24:19.897Z,95.40
2022-11-16T02:29:20.109Z,95.50
2022-11-16T02:34:19.758Z,95.50
2022-11-16T02:39:19.716Z,95.61
2022-11-16T02:44:19.656Z,95.61
2022-11-16T02:49:19.586Z,95.50
2022-11-16T02:54:19.521Z,95.61
2022-11-16T02:59:19.457Z,95.30
2022-11-16T03:04:19.412Z,94.78
2022-11-16T03:09:20.144Z,94.68
2022-11-16T03:14:19.259Z,94.53
2022-11-16T03:19:19.239Z,94.02
2022-11-16T03:24:19.155Z,93.40
2022-11-16T03:29:19.075Z,92.84
2022-11-16T03:34:19.038Z,92.08
2022-11-16T03:39:18.956Z,91.87
2022-11-16T03:44:18.958Z,91.25
2022-11-16T03:49:18.839Z,91.21
2022-11-16T03:54:18.724Z,90.59
2022-11-16T03:59:18.672Z,90.18
2022-11-16T04:04:18.592Z,89.77
2022-11-16T04:09:26.824Z,89.67
2022-11-16T04:14:18.473Z,89.97
2022-11-16T04:19:18.406Z,89.87
2022-11-16T04:24:18.345Z,89.46
2022-11-16T04:29:18.302Z,89.25
2022-11-16T04:34:18.202Z,89.36
2022-11-16T04:39:18.201Z,89.25
2022-11-16T04:44:18.138Z,89.15
2022-11-16T04:49:18.022Z,89.05
2022-11-16T04:54:17.954Z,89.25
2022-11-16T04:59:17.916Z,89.46
2022-11-16T05:04:17.899Z,88.95
2022-11-16T05:09:17.765Z,88.64
2022-11-16T05:14:17.693Z,88.33
2022-11-16T05:19:17.672Z,88.64
2022-11-16T05:24:17.551Z,88.64
2022-11-16T05:29:17.586Z,87.92
2022-11-16T05:34:17.440Z,88.02
2022-11-16T05:39:17.471Z,87.60
2022-11-16T05:44:17.334Z,87.81
2022-11-16T05:49:17.235Z,87.81
2022-11-16T05:54:17.174Z,88.53
2022-11-16T05:59:17.137Z,88.80
2022-11-16T06:04:38.156Z,88.29
2022-11-16T06:09:16.972Z,94.33
2022-11-16T06:14:17.003Z,85.98
2022-11-16T06:19:16.876Z,77.46
2022-11-16T06:24:16.842Z,83.45
2022-11-16T06:29:17.291Z,84.34
2022-11-16T06:34:17.180Z,85.17
2022-11-16T06:39:16.610Z,84.55
2022-11-16T06:44:16.561Z,84.66
2022-11-16T06:49:16.481Z,84.80
2022-11-16T06:54:16.372Z,85.00
2022-11-16T06:59:16.332Z,85.62
2022-11-16T07:04:16.291Z,84.14
2022-11-16T07:09:16.229Z,84.49
2022-11-16T07:14:16.157Z,83.77
2022-11-16T07:19:16.104Z,84.28
2022-11-16T07:24:16.310Z,85.00
2022-11-16T07:29:15.957Z,84.45
2022-11-16T07:34:15.904Z,83.73
2022-11-16T07:39:15.827Z,83.32
2022-11-16T07:44:15.796Z,84.00
2022-11-16T07:49:15.702Z,82.81
2022-11-16T07:54:15.702Z,83.07
2022-11-16T07:59:15.601Z,82.46
2022-11-16T08:04:15.549Z,82.36
2022-11-16T08:09:15.459Z,82.05
2022-11-16T08:14:15.469Z,82.46
2022-11-16T08:19:15.320Z,83.28
2022-11-16T08:24:15.280Z,82.12
2022-11-16T08:29:15.263Z,82.39
2022-11-16T08:34:15.098Z,82.32
2022-11-16T08:39:15.996Z,81.50
2022-11-16T08:44:15.056Z,80.33
2022-11-16T08:49:15.006Z,80.54
2022-11-16T08:54:15.128Z,80.85
2022-11-16T08:59:14.780Z,80.19
2022-11-16T09:04:14.744Z,80.98
2022-11-16T09:09:14.646Z,79.89
2022-11-16T09:14:14.564Z,79.27
2022-11-16T09:19:14.515Z,78.97
2022-11-16T09:24:14.448Z,79.54
2022-11-16T09:29:14.507Z,80.26
2022-11-16T09:34:14.422Z,79.13
2022-11-16T09:39:41.963Z,78.08
2022-11-16T09:44:15.178Z,79.10
2022-11-16T09:49:59.773Z,76.81
2022-11-16T09:54:15.054Z,77.67
2022-11-16T09:59:18.152Z,77.36
2022-11-16T10:04:14.346Z,78.08
2022-11-16T10:09:13.987Z,78.42
2022-11-16T10:14:13.771Z,79.03
2022-11-16T10:19:13.736Z,79.82
2022-11-16T10:24:13.640Z,77.36
2022-11-16T10:29:13.592Z,77.87
2022-11-16T10:34:13.502Z,77.76
2022-11-16T10:39:13.486Z,78.59
2022-11-16T10:44:13.399Z,77.56
2022-11-16T10:49:13.316Z,77.76
2022-11-16T10:54:13.283Z,77.05
2022-11-16T10:59:13.190Z,77.56
2022-11-16T11:04:13.176Z,76.84
2022-11-16T11:09:13.038Z,76.03
2022-11-16T11:14:13.059Z,76.34
2022-11-16T11:19:12.925Z,76.43
2022-11-16T11:24:42.764Z,76.13
2022-11-16T11:29:13.818Z,76.78
2022-11-16T11:34:12.748Z,77.53
2022-11-16T11:39:12.768Z,78.35
2022-11-16T11:44:12.592Z,78.83
2022-11-16T11:49:12.574Z,78.42
2022-11-16T11:54:12.465Z,78.89
2022-11-16T11:59:12.402Z,77.97
2022-11-16T12:04:12.409Z,78.34
2022-11-16T12:09:12.431Z,76.61
2022-11-16T12:14:12.343Z,75.96
2022-11-16T12:19:12.662Z,75.89
2022-11-16T12:24:12.431Z,75.99
2022-11-16T12:29:12.055Z,75.68
2022-11-16T12:34:11.939Z,75.99
2022-11-16T12:39:11.932Z,75.59
2022-11-16T12:44:12.288Z,76.37
2022-11-16T12:49:12.713Z,75.45
2022-11-16T12:54:11.996Z,76.26
2022-11-16T12:59:11.755Z,77.01
2022-11-16T13:04:11.558Z,78.49
2022-11-16T13:09:12.390Z,79.10
2022-11-16T13:14:11.418Z,79.13
2022-11-16T13:19:11.361Z,79.64
2022-11-16T13:24:11.322Z,80.05
2022-11-16T13:29:11.444Z,81.43
2022-11-16T13:34:11.278Z,82.65
2022-11-16T13:39:11.158Z,84.12
2022-11-16T13:44:11.359Z,85.15
2022-11-16T13:49:11.026Z,86.38
2022-11-16T13:54:44.489Z,87.04
2022-11-16T13:59:11.838Z,87.14
2022-11-16T14:04:10.756Z,88.00
2022-11-16T14:09:10.762Z,88.21
2022-11-16T14:14:10.778Z,88.21
2022-11-16T14:19:10.579Z,88.72
2022-11-16T14:24:10.672Z,88.96
2022-11-16T14:29:18.567Z,90.20
2022-11-16T14:34:11.141Z,90.85
2022-11-16T14:39:10.331Z,91.57
2022-11-16T14:44:10.242Z,91.99
2022-11-16T14:49:10.221Z,91.57
2022-11-16T14:54:10.110Z,91.88
2022-11-16T14:59:10.040Z,91.99
2022-11-16T15:04:10.000Z,93.83
2022-11-16T15:09:10.003Z,92.60
2022-11-16T15:14:09.866Z,93.01
2022-11-16T15:19:09.803Z,94.18
2022-11-16T15:24:29.380Z,94.29
2022-11-16T15:29:10.663Z,94.08
2022-11-16T15:34:09.583Z,94.49
2022-11-16T15:39:09.543Z,93.71
2022-11-16T15:44:14.821Z,95.36
2022-11-16T15:49:10.547Z,95.81
2022-11-16T15:54:09.361Z,95.50
2022-11-16T15:59:09.392Z,95.20
2022-11-16T16:04:09.235Z,95.61
2022-11-16T16:09:09.163Z,96.43
2022-11-16T16:14:09.107Z,96.73
2022-11-16T16:19:10.393Z,96.84
2022-11-16T16:24:08.965Z,97.40
2022-11-16T16:29:08.975Z,97.19
2022-11-16T16:34:08.858Z,97.40
2022-11-16T16:39:08.778Z,97.03
2022-11-16T16:44:09.017Z,97.34
2022-11-16T16:49:08.608Z,97.96
2022-11-16T16:54:08.601Z,98.68
2022-11-16T16:59:08.486Z,98.72
2022-11-16T17:04:08.504Z,98.93
2022-11-16T17:09:08.408Z,99.14
2022-11-16T17:14:08.370Z,99.14
2022-11-16T17:19:08.288Z,99.24
2022-11-16T17:24:08.435Z,99.34
2022-11-16T17:29:08.099Z,99.14
2022-11-16T17:34:12.276Z,99.14
2022-11-16T17:39:08.947Z,99.04
2022-11-16T17:44:07.930Z,99.44
2022-11-16T17:49:07.825Z,99.65
2022-11-16T17:54:07.772Z,99.44
2022-11-16T17:59:07.705Z,99.60
2022-11-16T18:04:07.670Z,99.34
2022-11-16T18:09:07.627Z,99.24
2022-11-16T18:14:07.554Z,99.14
2022-11-16T18:19:07.454Z,98.93
2022-11-16T18:24:07.415Z,99.29
2022-11-16T18:29:07.295Z,99.60
2022-11-16T18:34:07.246Z,99.08
2022-11-16T18:39:07.217Z,98.25
2022-11-16T18:44:07.188Z,98.67
2022-11-16T18:49:07.056Z,98.88
2022-11-16T18:54:07.008Z,99.02
2022-11-16T18:59:06.909Z,99.02
2022-11-16T19:04:06.902Z,98.71
2022-11-16T19:09:06.866Z,99.33
2022-11-16T19:14:06.754Z,98.10
2022-11-16T19:19:06.661Z,97.73
2022-11-16T19:24:06.635Z,97.94
2022-11-16T19:29:06.545Z,98.45
2022-11-16T19:34:06.462Z,97.88
2022-11-16T19:39:46.915Z,98.24
2022-11-16T19:44:06.355Z,97.67
2022-11-16T19:49:06.314Z,97.98
2022-11-16T19:54:06.193Z,98.54
2022-11-16T19:59:06.166Z,98.85
2022-11-16T20:04:06.048Z,99.26
2022-11-16T20:09:06.234Z,99.52
2022-11-16T20:14:05.977Z,99.99
2022-11-16T20:19:05.979Z,99.72
2022-11-16T20:24:07.134Z,99.72
2022-11-16T20:29:05.916Z,99.62
2022-11-16T20:34:05.692Z,99.21
2022-11-16T20:39:05.701Z,99.21
2022-11-16T20:44:05.521Z,99.52
2022-11-16T20:49:05.569Z,99.21
2022-11-16T20:54:05.513Z,99.31
2022-11-16T20:59:05.477Z,99.93
2022-11-16T21:04:05.297Z,98.79
2022-11-16T21:09:05.227Z,99.00
2022-11-16T21:14:05.182Z,98.13
2022-11-16T21:19:05.148Z,97.20
2022-11-16T21:24:05.044Z,97.41
2022-11-16T21:29:04.967Z,96.94
2022-11-16T21:34:04.905Z,97.45
2022-11-16T21:39:04.876Z,97.82
2022-11-16T21:44:04.776Z,96.89
2022-11-16T21:49:04.761Z,96.58
2022-11-16T21:54:04.646Z,97.09
2022-11-16T21:59:04.568Z,97.04
2022-11-16T22:04:04.552Z,97.34
2022-11-16T22:09:04.429Z,96.73
2022-11-16T22:14:04.408Z,96.58
2022-11-16T22:19:04.364Z,96.01
2022-11-16T22:24:04.238Z,96.83
2022-11-16T22:29:04.196Z,96.01
2022-11-16T22:34:04.161Z,96.01
2022-11-16T22:39:04.070Z,95.90
2022-11-16T22:44:04.005Z,95.90
2022-11-16T22:49:03.945Z,96.05
2022-11-16T22:54:03.880Z,96.56
2022-11-16T22:59:03.844Z,95.95
2022-11-16T23:04:03.726Z,96.47
2022-11-16T23:09:03.693Z,96.67
2022-11-16T23:14:03.604Z,95.53
2022-11-16T23:19:03.729Z,96.05
2022-11-16T23:24:03.496Z,94.92
2022-11-16T23:29:03.600Z,95.43
2022-11-16T23:34:03.397Z,95.53
2022-11-16T23:39:03.328Z,95.27
2022-11-16T23:44:03.229Z,95.27
2022-11-16T23:49:03.145Z,96.03
2022-11-16T23:54:03.097Z,96.14
2022-11-16T23:59:03.045Z,95.52
